Time;durP1;ratioP1;P1;durP2;ratioP2;P2;SDS_P1;SDS_P2;PMS_P1;PMS_P2;Temp;Humidity;BMP_temperature;BMP_pressure;BME280_temperature;BME280_humidity;BME280_pressure;Samples;Min_cycle;Max_cycle;Signal;HPM_P1;HPM_P2
2021/05/31 00:01:20;;;;;;;2.87;2.67;;;9.40;99.90;;;;;;6236380;23;20163;-90
2021/05/31 00:03:46;;;;;;;4.00;3.10;;;9.40;99.90;;;;;;6236489;23;20395;-90
2021/05/31 00:06:12;;;;;;;2.90;2.70;;;9.40;99.90;;;;;;6235748;23;20276;-90
2021/05/31 00:08:37;;;;;;;2.60;2.40;;;9.30;99.90;;;;;;6235216;23;20493;-90
2021/05/31 00:11:04;;;;;;;4.80;2.97;;;9.40;99.90;;;;;;6235777;23;20237;-90
2021/05/31 00:13:30;;;;;;;3.27;3.00;;;9.40;99.90;;;;;;6236137;23;20160;-90
2021/05/31 00:15:56;;;;;;;4.00;2.97;;;9.30;99.90;;;;;;6235182;23;20433;-91
2021/05/31 00:18:23;;;;;;;3.37;3.10;;;9.20;99.90;;;;;;6235306;23;20402;-91
2021/05/31 00:20:51;;;;;;;3.33;2.80;;;9.20;99.90;;;;;;6210613;23;20355;-91
2021/05/31 00:23:18;;;;;;;3.33;3.00;;;9.10;99.90;;;;;;6210369;23;20408;-90
2021/05/31 00:25:44;;;;;;;3.37;3.07;;;9.00;99.90;;;;;;6210524;23;20388;-91
2021/05/31 00:28:10;;;;;;;3.60;2.80;;;9.00;99.90;;;;;;6210653;23;20786;-90
2021/05/31 00:30:37;;;;;;;3.13;2.90;;;9.00;99.90;;;;;;6210783;23;20937;-90
2021/05/31 00:33:07;;;;;;;3.93;3.57;;;9.00;99.90;;;;;;6212469;23;20453;-90
2021/05/31 00:35:33;;;;;;;3.43;2.87;;;9.00;99.90;;;;;;6238258;23;20440;-90
2021/05/31 00:38:01;;;;;;;2.57;2.37;;;9.00;99.90;;;;;;6212801;23;20672;-90
2021/05/31 00:40:28;;;;;;;2.77;2.50;;;9.00;99.90;;;;;;6212884;23;20390;-90
2021/05/31 00:42:54;;;;;;;3.10;2.20;;;9.10;99.90;;;;;;6212414;23;20390;-90
2021/05/31 00:45:20;;;;;;;3.03;2.50;;;9.20;99.90;;;;;;6212177;23;20386;-91
2021/05/31 00:47:45;;;;;;;2.97;2.77;;;9.40;99.90;;;;;;6212607;23;20809;-90
2021/05/31 00:50:12;;;;;;;3.07;2.77;;;9.40;99.90;;;;;;6212483;23;20217;-91
2021/05/31 00:52:38;;;;;;;4.43;3.13;;;9.50;99.90;;;;;;6212503;23;20236;-91
2021/05/31 00:55:05;;;;;;;2.90;2.70;;;9.50;99.90;;;;;;6211678;23;20930;-91
2021/05/31 00:57:32;;;;;;;3.80;2.90;;;9.50;99.90;;;;;;6238434;23;20387;-91
2021/05/31 00:59:57;;;;;;;4.10;2.80;;;9.60;99.80;;;;;;6212515;23;20410;-91
2021/05/31 01:02:24;;;;;;;3.37;2.80;;;9.70;99.90;;;;;;6211803;23;20702;-91
2021/05/31 01:04:49;;;;;;;2.73;2.53;;;9.60;99.80;;;;;;6211882;23;20295;-90
2021/05/31 01:07:20;;;;;;;3.00;2.70;;;9.60;99.90;;;;;;6212090;23;20441;-90
2021/05/31 01:09:59;;;;;;;3.93;3.10;;;9.50;99.90;;;;;;6212453;23;20398;-91
2021/05/31 01:12:43;;;;;;;8.97;3.20;;;9.50;99.90;;;;;;6212334;23;20480;-90
2021/05/31 01:15:25;;;;;;;3.43;2.63;;;9.50;99.90;;;;;;6211321;23;20505;-90
2021/05/31 01:18:23;;;;;;;4.03;3.27;;;9.50;99.90;;;;;;6212324;23;20413;-90
2021/05/31 01:21:37;;;;;;;2.80;2.20;;;9.50;99.70;;;;;;6206551;23;20626;-90
2021/05/31 01:24:11;;;;;;;3.23;2.97;;;9.60;99.50;;;;;;6182442;23;20448;-91
2021/05/31 01:27:15;;;;;;;3.80;3.30;;;9.60;99.40;;;;;;6181668;23;20413;-90
2021/05/31 01:29:47;;;;;;;3.23;2.40;;;9.70;99.30;;;;;;6206487;23;20387;-90
2021/05/31 01:32:14;;;;;;;3.43;2.60;;;9.70;99.40;;;;;;6182379;23;20387;-90
2021/05/31 01:34:42;;;;;;;3.10;2.80;;;9.60;99.10;;;;;;6181185;23;20442;-91
2021/05/31 01:37:15;;;;;;;2.97;2.67;;;9.60;99.30;;;;;;6182129;23;20392;-90
2021/05/31 01:39:44;;;;;;;4.00;3.00;;;9.50;99.70;;;;;;6182373;23;20402;-91
2021/05/31 01:42:10;;;;;;;3.03;2.73;;;9.50;99.60;;;;;;6182040;23;20427;-90
2021/05/31 01:44:37;;;;;;;4.57;3.17;;;9.50;99.80;;;;;;6205359;23;20398;-90
2021/05/31 01:47:03;;;;;;;2.93;2.57;;;9.40;99.90;;;;;;6157143;23;20395;-90
2021/05/31 01:49:30;;;;;;;3.57;3.27;;;9.40;99.90;;;;;;6180444;23;20424;-89
2021/05/31 01:51:58;;;;;;;4.30;2.67;;;9.30;99.90;;;;;;6180885;23;20387;-90
2021/05/31 01:54:24;;;;;;;3.00;2.70;;;9.30;99.90;;;;;;6181542;23;20497;-90
2021/05/31 01:56:50;;;;;;;3.40;3.10;;;9.30;99.90;;;;;;6181842;23;20892;-90
2021/05/31 01:59:18;;;;;;;3.57;2.73;;;9.20;99.90;;;;;;6180966;23;20410;-91
2021/05/31 02:01:46;;;;;;;4.47;3.00;;;9.10;99.90;;;;;;6181058;23;20705;-90
2021/05/31 02:04:12;;;;;;;2.80;2.60;;;9.00;99.90;;;;;;6182183;23;20410;-90
2021/05/31 02:06:38;;;;;;;4.17;2.90;;;8.90;99.90;;;;;;6179787;23;20852;-90
2021/05/31 02:09:05;;;;;;;2.77;2.57;;;9.00;99.90;;;;;;6182147;23;20246;-89
2021/05/31 02:11:55;;;;;;;4.37;3.07;;;9.10;99.90;;;;;;6181686;23;20242;-90
2021/05/31 02:14:46;;;;;;;2.60;2.40;;;9.20;99.90;;;;;;6181190;23;20446;-90
2021/05/31 02:17:41;;;;;;;3.53;2.70;;;9.10;99.90;;;;;;6182036;23;20911;-89
2021/05/31 02:20:10;;;;;;;2.73;2.53;;;9.10;99.90;;;;;;6222770;23;20420;-90
2021/05/31 02:22:42;;;;;;;3.00;2.80;;;9.10;99.90;;;;;;6236621;23;20871;-89
2021/05/31 02:25:09;;;;;;;2.90;2.43;;;9.10;99.90;;;;;;6238724;23;20386;-90
2021/05/31 02:27:39;;;;;;;4.07;2.53;;;9.10;99.90;;;;;;6237265;23;20759;-91
2021/05/31 02:30:10;;;;;;;3.40;3.10;;;9.00;99.90;;;;;;6236629;23;20400;-90
2021/05/31 02:32:37;;;;;;;3.33;2.40;;;9.00;99.90;;;;;;6237284;23;20576;-90
2021/05/31 02:35:10;;;;;;;4.97;2.83;;;9.00;99.90;;;;;;6236955;23;20532;-90
2021/05/31 02:37:40;;;;;;;2.60;2.40;;;9.00;99.90;;;;;;6236845;23;20398;-90
2021/05/31 02:40:09;;;;;;;3.70;2.60;;;9.00;99.90;;;;;;6231058;22;20409;-90
2021/05/31 02:42:46;;;;;;;3.80;3.00;;;9.10;99.90;;;;;;6237318;23;20876;-90
2021/05/31 02:45:13;;;;;;;3.87;2.80;;;9.00;99.90;;;;;;6236881;23;20409;-90
2021/05/31 02:47:40;;;;;;;2.70;2.50;;;8.90;99.90;;;;;;6236758;23;20455;-90
2021/05/31 02:50:07;;;;;;;3.07;2.77;;;8.90;99.90;;;;;;6233291;23;20729;-90
2021/05/31 02:52:33;;;;;;;5.50;2.70;;;8.90;99.90;;;;;;6236129;23;20427;-90
2021/05/31 02:55:00;;;;;;;3.20;2.90;;;8.90;99.90;;;;;;6235071;23;20479;-90
2021/05/31 02:57:26;;;;;;;2.93;2.67;;;8.80;99.90;;;;;;6235708;23;20452;-90
2021/05/31 02:59:52;;;;;;;3.60;2.60;;;8.80;99.90;;;;;;6235636;23;20405;-90
2021/05/31 03:02:19;;;;;;;3.40;2.60;;;8.80;99.90;;;;;;6237104;23;20154;-90
2021/05/31 03:04:44;;;;;;;2.93;2.70;;;8.70;99.90;;;;;;6235251;23;20402;-89
2021/05/31 03:07:11;;;;;;;2.67;2.47;;;8.60;99.90;;;;;;6236489;23;20688;-90
2021/05/31 03:09:40;;;;;;;3.00;2.80;;;8.50;99.90;;;;;;6236056;23;20224;-91
2021/05/31 03:12:06;;;;;;;3.43;2.90;;;8.40;99.90;;;;;;6236030;23;20390;-90
2021/05/31 03:14:32;;;;;;;3.10;2.80;;;8.50;99.90;;;;;;6237684;22;20465;-90
2021/05/31 03:17:02;;;;;;;3.10;2.50;;;8.40;99.90;;;;;;6235672;23;20401;-89
2021/05/31 03:19:27;;;;;;;3.00;2.80;;;8.40;99.90;;;;;;6235879;23;20269;-90
2021/05/31 03:21:53;;;;;;;3.67;3.23;;;8.40;99.90;;;;;;6236274;23;20427;-90
2021/05/31 03:24:19;;;;;;;3.17;2.83;;;8.40;99.90;;;;;;6235538;23;20169;-90
2021/05/31 03:26:45;;;;;;;2.97;2.53;;;8.40;99.90;;;;;;6261273;22;20477;-90
2021/05/31 03:29:10;;;;;;;3.20;2.90;;;8.40;99.90;;;;;;6235978;23;20201;-89
2021/05/31 03:31:36;;;;;;;3.03;2.70;;;8.30;99.90;;;;;;6236073;23;20612;-90
2021/05/31 03:34:02;;;;;;;4.57;2.40;;;8.30;99.90;;;;;;6235344;23;20578;-90
2021/05/31 03:36:27;;;;;;;2.80;2.60;;;8.20;99.90;;;;;;6236372;23;20469;-91
2021/05/31 03:38:53;;;;;;;2.90;2.70;;;8.20;99.90;;;;;;6236113;23;20169;-90
2021/05/31 03:41:19;;;;;;;2.63;2.43;;;8.20;99.90;;;;;;6236110;23;20420;-89
2021/05/31 03:43:45;;;;;;;4.73;3.30;;;8.20;99.90;;;;;;6238383;22;20247;-90
2021/05/31 03:46:11;;;;;;;5.90;3.00;;;8.20;99.90;;;;;;6235607;23;20417;-91
2021/05/31 03:48:37;;;;;;;3.63;3.10;;;8.30;99.90;;;;;;6236199;23;20257;-90
2021/05/31 03:51:14;;;;;;;5.33;3.03;;;8.30;99.90;;;;;;6236371;23;20169;-90
2021/05/31 03:53:41;;;;;;;3.43;2.90;;;8.40;99.90;;;;;;6236630;22;20158;-89
2021/05/31 03:56:08;;;;;;;4.30;3.07;;;8.30;99.90;;;;;;6235934;23;20403;-90
2021/05/31 03:58:35;;;;;;;2.97;2.57;;;8.30;99.90;;;;;;6236036;23;20395;-91
2021/05/31 04:01:01;;;;;;;2.87;2.60;;;8.30;99.90;;;;;;6236703;23;20456;-90
2021/05/31 04:03:29;;;;;;;3.30;3.00;;;8.40;99.90;;;;;;6233027;23;20957;-90
2021/05/31 04:11:37;;;;;;;4.00;3.70;;;8.40;99.90;;;;;;6237533;23;20410;-90
2021/05/31 04:14:09;;;;;;;4.40;3.00;;;8.40;99.90;;;;;;6235860;23;20530;-90
2021/05/31 04:16:36;;;;;;;3.40;3.10;;;8.50;99.90;;;;;;6236154;23;20406;-90
2021/05/31 04:19:04;;;;;;;3.40;3.10;;;8.50;99.90;;;;;;6235355;23;20448;-91
2021/05/31 04:21:30;;;;;;;3.97;3.67;;;8.50;99.90;;;;;;6236476;23;20398;-90
2021/05/31 04:23:56;;;;;;;3.07;2.83;;;8.60;99.90;;;;;;6235196;23;20500;-91
2021/05/31 04:26:22;;;;;;;8.07;3.20;;;8.70;99.90;;;;;;6235974;23;20430;-90
2021/05/31 04:28:48;;;;;;;3.53;3.00;;;8.70;99.90;;;;;;6235718;23;20542;-91
2021/05/31 04:31:14;;;;;;;6.23;3.40;;;8.80;99.90;;;;;;6235551;23;20405;-91
2021/05/31 04:33:41;;;;;;;3.53;2.97;;;8.90;99.90;;;;;;6232308;23;20888;-90
2021/05/31 04:36:07;;;;;;;3.73;3.00;;;9.00;99.90;;;;;;6234260;23;20413;-91
2021/05/31 04:38:33;;;;;;;3.63;3.33;;;9.00;99.90;;;;;;6209854;23;20407;-90
2021/05/31 04:41:00;;;;;;;3.33;3.13;;;9.10;99.90;;;;;;6235197;23;20799;-90
2021/05/31 04:43:25;;;;;;;3.77;3.37;;;9.20;99.90;;;;;;6235039;23;20402;-90
2021/05/31 04:45:51;;;;;;;3.40;3.10;;;9.20;99.90;;;;;;6234638;23;20867;-89
2021/05/31 04:48:17;;;;;;;4.70;3.13;;;9.30;99.90;;;;;;6235658;23;20170;-90
2021/05/31 04:50:43;;;;;;;8.40;3.60;;;9.40;99.90;;;;;;6235077;23;20163;-90
2021/05/31 04:53:10;;;;;;;5.60;3.27;;;9.50;99.90;;;;;;6235561;23;20167;-90
2021/05/31 04:55:37;;;;;;;3.73;3.43;;;9.50;99.90;;;;;;6235131;23;20438;-90
2021/05/31 04:58:03;;;;;;;3.53;3.20;;;9.60;99.90;;;;;;6237611;22;20393;-90
2021/05/31 05:00:29;;;;;;;3.90;3.60;;;9.70;99.90;;;;;;6235430;23;20787;-89
2021/05/31 05:02:55;;;;;;;5.13;4.00;;;9.80;99.90;;;;;;6235402;23;20156;-90
2021/05/31 05:05:21;;;;;;;3.90;3.60;;;9.90;99.90;;;;;;6235040;23;20398;-91
2021/05/31 05:07:50;;;;;;;3.93;3.60;;;9.90;99.90;;;;;;6235577;23;20483;-93
2021/05/31 05:10:20;;;;;;;3.87;3.57;;;10.10;99.90;;;;;;6235758;23;20408;-92
2021/05/31 05:12:51;;;;;;;4.33;3.93;;;10.20;99.90;;;;;;6237378;22;20385;-90
2021/05/31 05:15:19;;;;;;;4.90;3.87;;;10.30;99.90;;;;;;6235388;23;20445;-92
2021/05/31 05:17:45;;;;;;;3.70;3.40;;;10.40;99.90;;;;;;6236758;23;20395;-90
2021/05/31 05:20:11;;;;;;;3.47;3.17;;;10.50;99.90;;;;;;6237796;23;20825;-93
2021/05/31 05:22:37;;;;;;;4.27;3.87;;;10.60;99.90;;;;;;6237298;23;20427;-89
2021/05/31 05:25:04;;;;;;;5.00;3.60;;;10.70;99.90;;;;;;6237247;23;20388;-90
2021/05/31 05:27:31;;;;;;;4.30;3.90;;;10.80;99.90;;;;;;6237435;23;20479;-90
2021/05/31 05:29:57;;;;;;;4.67;3.60;;;10.90;99.90;;;;;;6237845;23;20401;-90
2021/05/31 05:32:23;;;;;;;4.37;3.87;;;11.00;99.90;;;;;;6238095;23;20400;-90
2021/05/31 05:34:50;;;;;;;4.87;3.80;;;11.10;99.90;;;;;;6237445;23;20238;-91
2021/05/31 05:37:28;;;;;;;4.07;3.77;;;11.30;99.90;;;;;;6238264;23;20166;-90
2021/05/31 05:45:10;;;;;;;5.67;3.83;;;11.50;99.90;;;;;;6239246;23;20165;-91
2021/05/31 05:47:44;;;;;;;4.50;4.10;;;11.50;99.90;;;;;;6239211;23;20536;-90
2021/05/31 05:50:12;;;;;;;4.63;4.23;;;11.50;99.90;;;;;;6237261;23;20707;-90
2021/05/31 05:52:38;;;;;;;5.10;4.03;;;11.60;99.90;;;;;;6212828;23;20399;-90
2021/05/31 05:55:06;;;;;;;7.37;3.90;;;11.70;99.90;;;;;;6237399;23;21121;-90
2021/05/31 05:57:32;;;;;;;5.43;3.97;;;11.90;99.90;;;;;;6237553;23;20162;-90
2021/05/31 06:00:01;;;;;;;7.37;4.30;;;12.00;99.60;;;;;;6233648;23;20830;-91
2021/05/31 06:02:27;;;;;;;4.37;3.97;;;12.20;99.50;;;;;;6231881;23;20190;-89
2021/05/31 06:04:52;;;;;;;5.77;4.30;;;12.30;99.20;;;;;;6235705;23;20402;-89
2021/05/31 06:07:18;;;;;;;5.07;3.97;;;12.40;99.40;;;;;;6235892;23;20401;-89
2021/05/31 06:09:44;;;;;;;4.80;4.17;;;12.50;98.90;;;;;;6236518;23;20194;-90
2021/05/31 06:12:10;;;;;;;4.53;4.13;;;12.50;98.40;;;;;;6236332;23;20163;-90
2021/05/31 06:14:35;;;;;;;6.37;3.97;;;12.60;98.90;;;;;;6235996;23;20812;-90
2021/05/31 06:17:01;;;;;;;4.97;3.80;;;12.70;98.90;;;;;;6210680;23;20194;-90
2021/05/31 06:19:29;;;;;;;7.43;3.90;;;12.80;98.30;;;;;;6236854;23;20553;-91
2021/05/31 06:21:54;;;;;;;4.87;3.60;;;13.00;98.70;;;;;;6235474;23;20485;-90
2021/05/31 06:24:20;;;;;;;3.93;3.17;;;13.10;98.90;;;;;;6235251;23;20506;-90
2021/05/31 06:26:46;;;;;;;3.73;3.43;;;13.20;98.00;;;;;;6236189;23;20151;-89
2021/05/31 06:29:11;;;;;;;3.90;3.53;;;13.20;97.50;;;;;;6235896;23;20202;-90
2021/05/31 06:31:37;;;;;;;3.77;3.47;;;13.30;97.50;;;;;;6235781;23;20159;-93
2021/05/31 06:34:03;;;;;;;4.20;3.80;;;13.40;96.10;;;;;;6236531;23;20194;-90
2021/05/31 06:36:31;;;;;;;5.53;4.60;;;13.40;96.40;;;;;;6235721;23;20442;-90
2021/05/31 06:38:56;;;;;;;4.10;3.70;;;13.50;96.50;;;;;;6236670;23;20169;-89
2021/05/31 06:41:22;;;;;;;4.43;3.73;;;13.50;96.60;;;;;;6236255;23;20485;-90
2021/05/31 06:43:49;;;;;;;3.90;3.60;;;13.70;96.60;;;;;;6236413;23;20158;-92
2021/05/31 06:46:21;;;;;;;3.77;3.47;;;13.70;96.10;;;;;;6236048;23;20190;-90
2021/05/31 06:48:59;;;;;;;3.33;3.13;;;13.90;96.40;;;;;;6235928;23;20390;-90
2021/05/31 06:51:24;;;;;;;4.10;3.80;;;14.00;95.90;;;;;;6239613;23;20478;-91
2021/05/31 06:53:50;;;;;;;3.40;3.10;;;14.10;95.60;;;;;;6235158;23;20471;-90
2021/05/31 06:56:16;;;;;;;3.73;3.37;;;14.20;95.00;;;;;;6236322;23;20533;-90
2021/05/31 06:58:44;;;;;;;3.90;3.60;;;14.30;94.40;;;;;;6236264;23;20169;-90
2021/05/31 07:01:11;;;;;;;3.80;3.50;;;14.30;93.50;;;;;;6211257;23;20414;-90
2021/05/31 07:03:38;;;;;;;3.50;3.20;;;14.30;94.10;;;;;;6235619;23;20468;-91
2021/05/31 07:06:05;;;;;;;3.87;3.10;;;14.40;94.10;;;;;;6236062;23;20489;-91
2021/05/31 07:08:37;;;;;;;3.60;3.30;;;14.50;94.10;;;;;;6232197;23;20394;-90
2021/05/31 07:11:15;;;;;;;3.80;3.33;;;14.60;94.30;;;;;;6212428;23;20398;-90
2021/05/31 07:13:49;;;;;;;4.23;3.93;;;14.90;94.30;;;;;;6236079;23;20840;-91
2021/05/31 07:16:18;;;;;;;4.40;3.83;;;15.00;93.30;;;;;;6236915;22;20482;-89
2021/05/31 07:18:58;;;;;;;3.10;2.90;;;15.10;92.70;;;;;;6236017;23;20401;-91
2021/05/31 07:21:29;;;;;;;3.00;2.80;;;15.20;92.90;;;;;;6211943;23;20182;-90
2021/05/31 07:23:55;;;;;;;4.20;3.00;;;15.20;91.80;;;;;;6237730;23;20378;-90
2021/05/31 07:26:24;;;;;;;3.63;3.33;;;15.20;91.90;;;;;;6235392;23;20436;-90
2021/05/31 07:28:52;;;;;;;2.93;2.73;;;15.30;91.80;;;;;;6235492;23;20159;-90
2021/05/31 07:31:18;;;;;;;3.13;2.83;;;15.50;92.00;;;;;;6189447;23;20386;-90
2021/05/31 07:33:44;;;;;;;7.60;3.17;;;15.40;90.90;;;;;;6210943;23;20409;-90
2021/05/31 07:36:11;;;;;;;2.93;2.73;;;15.40;91.20;;;;;;6235572;23;20861;-90
2021/05/31 07:38:37;;;;;;;3.13;2.93;;;15.70;90.10;;;;;;6236843;23;20163;-89
2021/05/31 07:41:05;;;;;;;2.67;2.47;;;15.80;91.50;;;;;;6236435;22;20400;-90
2021/05/31 07:43:31;;;;;;;3.10;2.90;;;16.00;90.20;;;;;;6236736;23;20163;-91
2021/05/31 07:46:09;;;;;;;5.47;2.70;;;16.10;89.30;;;;;;6234924;22;20436;-89
2021/05/31 07:48:35;;;;;;;2.83;2.30;;;16.00;87.20;;;;;;6237819;22;20389;-90
2021/05/31 07:51:19;;;;;;;2.70;2.50;;;16.10;89.60;;;;;;6236284;23;20690;-89
2021/05/31 07:53:53;;;;;;;3.03;2.83;;;16.10;91.10;;;;;;6235597;23;20198;-89
2021/05/31 07:56:19;;;;;;;3.00;2.47;;;16.40;87.90;;;;;;6235500;23;20460;-89
2021/05/31 07:58:46;;;;;;;4.53;2.50;;;16.30;87.00;;;;;;6235029;23;20720;-89
2021/05/31 08:01:14;;;;;;;5.53;3.10;;;16.30;87.40;;;;;;6237644;22;20781;-90
2021/05/31 08:03:41;;;;;;;3.23;2.93;;;16.30;84.60;;;;;;6235770;23;20724;-90
2021/05/31 08:06:07;;;;;;;2.60;2.40;;;16.40;86.90;;;;;;6230727;23;20447;-91
2021/05/31 08:08:33;;;;;;;2.97;2.60;;;16.50;83.50;;;;;;6234943;23;20413;-91
2021/05/31 08:10:59;;;;;;;5.70;3.20;;;16.60;84.20;;;;;;6238682;23;20394;-92
2021/05/31 08:13:25;;;;;;;3.20;3.00;;;16.80;83.30;;;;;;6236062;23;20167;-90
2021/05/31 08:15:52;;;;;;;3.00;2.80;;;16.80;83.80;;;;;;6234351;23;20950;-91
2021/05/31 08:18:19;;;;;;;5.77;2.80;;;16.90;81.80;;;;;;6236726;23;20385;-91
2021/05/31 08:20:52;;;;;;;4.27;3.97;;;16.90;81.80;;;;;;6236100;22;20703;-92
2021/05/31 08:23:18;;;;;;;3.10;2.80;;;17.00;83.40;;;;;;6208644;23;20394;-91
2021/05/31 08:25:44;;;;;;;7.50;2.73;;;17.20;80.70;;;;;;6210023;23;20925;-90
2021/05/31 08:28:10;;;;;;;2.70;2.50;;;17.20;73.50;;;;;;6209660;23;20163;-90
2021/05/31 08:30:36;;;;;;;7.03;3.30;;;17.30;76.10;;;;;;6211804;23;20390;-91
2021/05/31 08:33:05;;;;;;;3.57;3.00;;;17.30;76.50;;;;;;6211881;23;20401;-91
2021/05/31 08:35:32;;;;;;;4.13;3.20;;;17.30;76.00;;;;;;6209635;23;20520;-92
2021/05/31 08:37:58;;;;;;;3.00;2.70;;;17.40;78.90;;;;;;6211552;23;20882;-90
2021/05/31 08:40:24;;;;;;;3.43;3.00;;;17.40;75.40;;;;;;6211431;23;20408;-91
2021/05/31 08:42:50;;;;;;;4.13;3.00;;;17.40;76.20;;;;;;6210422;23;20401;-92
2021/05/31 08:45:18;;;;;;;3.83;3.00;;;17.50;75.40;;;;;;6210886;23;20406;-91
2021/05/31 08:47:49;;;;;;;3.73;3.43;;;17.60;78.30;;;;;;6210990;23;20393;-92
2021/05/31 08:50:21;;;;;;;3.10;2.90;;;17.60;78.00;;;;;;6210881;23;20726;-91
2021/05/31 08:52:49;;;;;;;4.30;3.17;;;17.50;72.70;;;;;;6212680;23;20400;-92
2021/05/31 08:55:17;;;;;;;3.23;2.90;;;17.60;75.40;;;;;;6212026;23;20775;-92
2021/05/31 08:57:47;;;;;;;3.10;2.90;;;17.50;73.40;;;;;;6238183;23;20396;-90
2021/05/31 09:00:35;;;;;;;3.50;3.30;;;17.60;71.50;;;;;;6236471;23;20398;-91
2021/05/31 09:03:08;;;;;;;3.10;2.80;;;17.80;71.30;;;;;;6188854;23;20448;-92
2021/05/31 09:05:42;;;;;;;2.83;2.60;;;18.10;75.50;;;;;;6239419;23;20405;-91
2021/05/31 09:08:23;;;;;;;3.03;2.80;;;18.10;71.30;;;;;;6212386;23;20394;-92
2021/05/31 09:10:54;;;;;;;3.37;3.07;;;18.30;70.70;;;;;;6239586;23;20393;-92
2021/05/31 09:13:32;;;;;;;4.30;3.90;;;18.10;75.60;;;;;;6212998;23;20771;-92
2021/05/31 09:16:15;;;;;;;4.03;3.73;;;18.10;70.70;;;;;;6211960;23;20476;-91
2021/05/31 09:19:07;;;;;;;3.50;3.20;;;18.10;77.30;;;;;;6212930;23;20548;-92
2021/05/31 09:22:02;;;;;;;4.77;3.30;;;18.20;73.90;;;;;;6236819;23;20410;-92
2021/05/31 09:24:28;;;;;;;3.60;3.30;;;18.30;72.50;;;;;;6211715;23;20394;-91
2021/05/31 09:27:02;;;;;;;3.77;3.47;;;18.40;75.90;;;;;;6238473;23;20850;-91
2021/05/31 09:29:29;;;;;;;3.77;3.50;;;18.60;78.30;;;;;;6237376;23;20248;-91
2021/05/31 09:32:18;;;;;;;5.03;3.63;;;18.60;76.20;;;;;;6237451;23;20488;-91
2021/05/31 09:35:24;;;;;;;7.60;4.20;;;18.50;78.20;;;;;;6221859;23;20455;-91
2021/05/31 09:37:51;;;;;;;3.80;3.60;;;18.70;70.60;;;;;;6238311;23;20412;-91
2021/05/31 09:40:26;;;;;;;3.57;3.27;;;18.80;77.20;;;;;;6237971;23;20394;-91
2021/05/31 09:42:58;;;;;;;4.40;4.10;;;19.00;75.60;;;;;;6237808;23;20385;-90
2021/05/31 09:45:24;;;;;;;5.17;3.90;;;19.00;77.70;;;;;;6237220;23;20456;-92
2021/05/31 09:47:50;;;;;;;4.20;3.80;;;19.10;73.40;;;;;;6237079;23;20760;-91
2021/05/31 09:50:25;;;;;;;4.13;3.83;;;19.00;75.10;;;;;;6237470;23;20390;-92
2021/05/31 09:53:04;;;;;;;4.23;3.93;;;19.00;79.50;;;;;;6238087;23;20389;-90
2021/05/31 09:55:46;;;;;;;4.30;3.90;;;18.90;71.80;;;;;;6263057;22;20449;-91
2021/05/31 09:58:14;;;;;;;4.73;4.10;;;19.20;72.80;;;;;;6237619;23;20418;-92
2021/05/31 10:00:46;;;;;;;4.40;4.10;;;19.30;75.90;;;;;;6237736;23;20481;-91
2021/05/31 10:03:23;;;;;;;4.50;4.13;;;19.40;74.30;;;;;;6237043;23;20397;-92
2021/05/31 10:06:18;;;;;;;4.17;3.77;;;19.60;72.90;;;;;;6238020;23;20397;-92
2021/05/31 10:08:48;;;;;;;4.67;4.13;;;19.70;71.40;;;;;;6240186;22;20781;-91
2021/05/31 10:11:14;;;;;;;4.03;3.70;;;19.70;72.70;;;;;;6237834;23;20447;-90
2021/05/31 10:13:41;;;;;;;4.40;3.83;;;19.50;70.80;;;;;;6237458;23;20393;-91
2021/05/31 10:16:08;;;;;;;3.63;3.40;;;19.80;72.20;;;;;;6236062;23;20602;-91
2021/05/31 10:18:40;;;;;;;4.13;3.73;;;20.00;72.90;;;;;;6235985;23;20469;-92
2021/05/31 10:21:06;;;;;;;3.97;3.67;;;20.20;73.70;;;;;;6234861;23;20410;-92
2021/05/31 10:23:32;;;;;;;4.40;4.07;;;20.40;70.20;;;;;;6236750;23;20719;-90
2021/05/31 10:26:01;;;;;;;4.50;4.20;;;20.30;73.20;;;;;;6237400;23;20447;-91
2021/05/31 10:28:32;;;;;;;4.00;3.60;;;19.90;66.40;;;;;;6238236;23;20162;-91
2021/05/31 10:31:04;;;;;;;4.13;3.73;;;19.90;74.60;;;;;;6235765;23;20728;-93
2021/05/31 10:33:31;;;;;;;3.90;3.60;;;19.90;73.60;;;;;;6236210;23;20401;-91
2021/05/31 10:36:11;;;;;;;3.33;3.13;;;20.30;71.40;;;;;;6237450;22;20477;-90
2021/05/31 10:38:38;;;;;;;5.33;3.37;;;20.50;69.80;;;;;;6236344;23;20401;-92
2021/05/31 10:41:12;;;;;;;3.60;3.27;;;20.70;73.30;;;;;;6236279;23;20429;-91
2021/05/31 10:43:44;;;;;;;3.13;2.93;;;20.70;61.90;;;;;;6237681;23;20397;-91
2021/05/31 10:46:15;;;;;;;3.40;3.10;;;20.50;63.70;;;;;;6235721;23;20397;-92
2021/05/31 10:49:06;;;;;;;3.73;3.53;;;20.50;70.90;;;;;;6239379;23;20508;-91
2021/05/31 10:51:38;;;;;;;4.67;3.60;;;20.40;68.00;;;;;;6239842;23;20417;-92
2021/05/31 10:54:12;;;;;;;3.93;3.63;;;20.60;68.60;;;;;;6236041;23;20390;-91
2021/05/31 10:56:38;;;;;;;3.33;3.13;;;20.90;66.20;;;;;;6237394;23;20667;-93
2021/05/31 10:59:32;;;;;;;3.50;3.20;;;20.90;65.20;;;;;;6237182;23;20386;-91
2021/05/31 11:01:59;;;;;;;2.90;2.70;;;21.20;65.60;;;;;;6236988;23;20714;-91
2021/05/31 11:04:26;;;;;;;3.80;3.33;;;21.30;59.10;;;;;;6237254;23;20472;-92
2021/05/31 11:06:54;;;;;;;3.23;3.03;;;21.30;61.60;;;;;;6237298;23;20713;-92
2021/05/31 11:09:23;;;;;;;3.23;3.03;;;21.10;63.00;;;;;;6236840;23;20436;-92
2021/05/31 11:11:51;;;;;;;4.03;3.27;;;21.10;60.20;;;;;;6235652;23;20483;-93
2021/05/31 11:14:38;;;;;;;3.00;2.80;;;21.40;63.00;;;;;;6235870;23;20429;-92
2021/05/31 11:17:31;;;;;;;3.80;3.50;;;21.50;56.60;;;;;;6235518;23;20402;-93
2021/05/31 11:20:19;;;;;;;2.90;2.70;;;21.40;54.80;;;;;;6211471;23;20541;-92
2021/05/31 11:22:56;;;;;;;3.13;2.93;;;21.00;61.80;;;;;;6235191;23;20416;-93
2021/05/31 11:25:23;;;;;;;2.80;2.60;;;21.10;56.70;;;;;;6235917;23;20396;-91
2021/05/31 11:28:07;;;;;;;5.43;2.97;;;20.90;52.70;;;;;;6235142;23;20398;-93
2021/05/31 11:30:35;;;;;;;2.87;2.67;;;21.00;59.90;;;;;;6235936;23;20396;-92
2021/05/31 11:33:04;;;;;;;3.73;3.20;;;21.20;64.10;;;;;;6236578;23;20398;-91
2021/05/31 11:35:31;;;;;;;3.33;3.03;;;21.50;58.50;;;;;;6235584;23;20499;-90
2021/05/31 11:37:58;;;;;;;3.63;3.10;;;21.80;57.80;;;;;;6236531;23;20484;-91
2021/05/31 11:40:27;;;;;;;3.17;2.70;;;21.70;58.20;;;;;;6236638;23;20402;-92
2021/05/31 11:43:01;;;;;;;3.27;2.97;;;21.90;55.50;;;;;;6236928;23;20795;-92
2021/05/31 11:45:35;;;;;;;3.10;2.90;;;22.20;58.00;;;;;;6236207;23;20394;-92
2021/05/31 11:48:07;;;;;;;3.13;2.77;;;22.10;54.20;;;;;;6236590;23;20386;-91
2021/05/31 11:50:35;;;;;;;4.37;2.97;;;22.10;56.00;;;;;;6237779;23;20739;-91
2021/05/31 11:53:07;;;;;;;3.40;3.10;;;21.90;57.70;;;;;;6235183;22;20512;-92
2021/05/31 11:55:41;;;;;;;3.37;3.10;;;22.20;53.00;;;;;;6233626;23;20495;-93
2021/05/31 11:58:07;;;;;;;6.17;2.60;;;22.50;56.00;;;;;;6238602;23;20392;-92
2021/05/31 12:00:38;;;;;;;2.67;2.47;;;22.20;52.30;;;;;;6237769;23;20398;-92
2021/05/31 12:03:17;;;;;;;2.70;2.50;;;22.30;53.00;;;;;;6238169;22;20382;-94
2021/05/31 12:06:20;;;;;;;2.60;2.40;;;22.20;52.40;;;;;;6235779;22;20393;-91
2021/05/31 12:08:47;;;;;;;2.93;2.73;;;22.70;49.20;;;;;;6235505;23;20401;-92
2021/05/31 12:11:25;;;;;;;3.73;3.43;;;22.90;56.10;;;;;;6237668;23;20421;-92
2021/05/31 12:14:00;;;;;;;3.97;3.17;;;22.90;56.00;;;;;;6237770;23;20437;-90
2021/05/31 12:16:26;;;;;;;3.23;2.70;;;22.70;54.50;;;;;;6235674;23;20405;-91
2021/05/31 12:18:51;;;;;;;2.70;2.50;;;22.60;52.50;;;;;;6236363;23;20390;-91
2021/05/31 12:21:18;;;;;;;2.87;2.67;;;22.90;52.50;;;;;;6235381;23;20178;-92
2021/05/31 12:23:51;;;;;;;3.13;2.93;;;23.10;52.20;;;;;;6235969;23;20509;-92
2021/05/31 12:26:22;;;;;;;4.90;3.20;;;23.10;53.40;;;;;;6236508;23;20401;-92
2021/05/31 12:28:51;;;;;;;3.20;3.00;;;23.30;53.80;;;;;;6237486;23;20455;-91
2021/05/31 12:31:17;;;;;;;4.30;3.17;;;23.30;56.70;;;;;;6235159;23;20842;-92
2021/05/31 12:33:42;;;;;;;3.97;2.67;;;23.50;53.50;;;;;;6237367;23;20421;-93
2021/05/31 12:36:09;;;;;;;2.70;2.50;;;22.90;47.00;;;;;;6236576;23;20814;-91
2021/05/31 12:38:38;;;;;;;3.07;2.87;;;21.80;47.00;;;;;;6236139;23;20255;-93
2021/05/31 12:41:04;;;;;;;2.97;2.77;;;22.00;53.00;;;;;;6237192;23;20962;-94
2021/05/31 12:43:35;;;;;;;3.53;3.10;;;22.60;55.40;;;;;;6237287;23;20414;-91
2021/05/31 12:46:02;;;;;;;3.77;3.17;;;22.80;51.30;;;;;;6237219;23;20199;-93
2021/05/31 12:48:28;;;;;;;3.90;2.90;;;22.80;57.70;;;;;;6236409;23;20394;-93
2021/05/31 12:50:57;;;;;;;3.40;3.20;;;23.00;55.50;;;;;;6208745;23;20946;-93
2021/05/31 12:53:27;;;;;;;3.60;3.30;;;23.30;52.00;;;;;;6235584;23;20159;-92
2021/05/31 12:56:03;;;;;;;3.30;3.10;;;23.30;51.50;;;;;;6236289;23;20445;-93
2021/05/31 12:58:29;;;;;;;2.80;2.60;;;23.70;49.90;;;;;;6212155;23;20393;-92
2021/05/31 13:00:57;;;;;;;4.23;2.57;;;23.60;51.10;;;;;;6236776;23;20390;-92
2021/05/31 13:03:54;;;;;;;2.90;2.70;;;24.30;49.10;;;;;;6210438;23;20437;-95
2021/05/31 13:06:35;;;;;;;3.27;2.97;;;24.70;48.90;;;;;;6231275;23;20405;-93
2021/05/31 13:09:05;;;;;;;4.00;3.57;;;24.60;50.70;;;;;;6235502;23;20405;-92
2021/05/31 13:11:45;;;;;;;3.10;2.90;;;24.00;51.40;;;;;;6235763;23;20725;-92
2021/05/31 13:14:14;;;;;;;3.00;2.73;;;24.20;51.90;;;;;;6234661;23;20406;-92
2021/05/31 13:16:50;;;;;;;2.80;2.63;;;24.50;51.60;;;;;;6235827;23;20410;-93